Time;durP1;ratioP1;P1;durP2;ratioP2;P2;SDS_P1;SDS_P2;PMS_P1;PMS_P2;Temp;Humidity;BMP_temperature;BMP_pressure;BME280_temperature;BME280_humidity;BME280_pressure;Samples;Min_cycle;Max_cycle;Signal;HPM_P1;HPM_P2
2022/04/03 00:00:56;;;;;;;5.78;1.70;;;11.50;95.30;;;;;;4732030;30;20157;-77
2022/04/03 00:03:23;;;;;;;6.03;1.83;;;11.60;95.20;;;;;;4716669;30;20467;-77
2022/04/03 00:05:51;;;;;;;6.38;1.75;;;11.60;95.20;;;;;;4728126;30;20067;-77
2022/04/03 00:08:19;;;;;;;5.65;2.05;;;11.60;95.00;;;;;;4713285;30;20152;-77
2022/04/03 00:10:47;;;;;;;2.25;1.52;;;11.70;95.00;;;;;;4714185;30;20140;-77
2022/04/03 00:13:14;;;;;;;2.15;1.42;;;11.70;94.80;;;;;;4714851;30;20060;-76
2022/04/03 00:15:42;;;;;;;4.00;2.25;;;11.60;94.90;;;;;;4713291;30;20139;-76
2022/04/03 00:18:10;;;;;;;5.88;1.92;;;11.60;95.00;;;;;;4713525;30;20057;-78
2022/04/03 00:20:39;;;;;;;4.38;1.92;;;11.60;94.90;;;;;;4699339;30;20060;-77
2022/04/03 00:23:08;;;;;;;4.88;1.90;;;11.50;95.00;;;;;;4713665;30;20053;-76
2022/04/03 00:25:37;;;;;;;3.10;1.50;;;11.50;95.00;;;;;;4713361;30;20064;-77
2022/04/03 00:28:04;;;;;;;4.40;1.70;;;11.40;94.90;;;;;;4713381;30;20107;-76
2022/04/03 00:30:33;;;;;;;2.35;1.23;;;11.40;94.90;;;;;;4714197;30;20734;-76
2022/04/03 00:33:01;;;;;;;3.75;2.00;;;11.40;94.90;;;;;;4727237;30;20493;-76
2022/04/03 00:35:28;;;;;;;3.72;1.95;;;11.50;94.90;;;;;;4714581;30;20527;-77
2022/04/03 00:37:56;;;;;;;3.30;1.63;;;11.40;94.70;;;;;;4713176;30;20484;-77
2022/04/03 00:40:26;;;;;;;7.07;1.98;;;11.40;94.70;;;;;;4713169;30;20060;-77
2022/04/03 00:42:54;;;;;;;6.47;2.58;;;11.30;94.80;;;;;;4714153;30;20053;-78
2022/04/03 00:45:22;;;;;;;5.13;1.38;;;11.20;94.90;;;;;;4728079;30;20600;-77
2022/04/03 00:47:54;;;;;;;5.00;1.75;;;11.20;95.00;;;;;;4714372;30;20056;-77
2022/04/03 00:50:23;;;;;;;2.92;1.63;;;11.10;95.10;;;;;;4715357;30;20077;-77
2022/04/03 00:52:51;;;;;;;2.15;1.25;;;11.00;95.10;;;;;;4695353;30;20505;-76
2022/04/03 00:55:19;;;;;;;16.10;2.20;;;11.00;95.30;;;;;;4712399;30;20081;-77
2022/04/03 00:57:47;;;;;;;2.90;1.77;;;10.90;95.40;;;;;;4698379;30;20074;-76
2022/04/03 01:00:14;;;;;;;4.57;1.35;;;10.80;95.70;;;;;;4698194;30;20053;-76
2022/04/03 01:02:42;;;;;;;6.30;2.65;;;10.70;95.80;;;;;;4698815;30;20061;-78
2022/04/03 01:05:10;;;;;;;4.68;1.45;;;10.50;96.10;;;;;;4714726;30;20535;-77
2022/04/03 01:07:38;;;;;;;5.65;1.70;;;10.40;96.40;;;;;;4713057;30;20134;-77
2022/04/03 01:10:05;;;;;;;3.53;2.28;;;10.30;96.60;;;;;;4684364;30;20053;-77
2022/04/03 01:12:40;;;;;;;2.97;1.48;;;10.20;96.70;;;;;;4698515;30;20858;-77
2022/04/03 01:15:17;;;;;;;3.08;1.30;;;10.10;96.90;;;;;;4714084;30;20509;-77
2022/04/03 01:17:46;;;;;;;2.95;1.23;;;10.10;97.30;;;;;;4713472;30;20054;-77
2022/04/03 01:20:14;;;;;;;6.93;2.50;;;10.00;97.50;;;;;;4712953;30;20536;-77
2022/04/03 01:22:41;;;;;;;3.75;1.55;;;10.10;97.50;;;;;;4713414;30;20061;-78
2022/04/03 01:25:14;;;;;;;6.47;1.95;;;10.10;97.40;;;;;;4727944;30;20053;-78
2022/04/03 01:27:42;;;;;;;4.65;2.25;;;10.10;97.40;;;;;;4712840;30;20421;-77
2022/04/03 01:30:10;;;;;;;2.95;1.60;;;10.20;97.40;;;;;;4712517;30;20127;-77
2022/04/03 01:32:39;;;;;;;3.67;1.42;;;10.20;97.40;;;;;;4713062;30;20053;-77
2022/04/03 01:35:07;;;;;;;4.65;1.85;;;10.30;97.50;;;;;;4698382;30;20053;-77
2022/04/03 01:37:35;;;;;;;5.55;2.03;;;10.30;97.30;;;;;;4698546;30;20573;-77
2022/04/03 01:40:04;;;;;;;8.48;1.75;;;10.30;97.40;;;;;;4713657;30;20501;-77
2022/04/03 01:42:32;;;;;;;1.95;1.20;;;10.30;97.60;;;;;;4713093;30;20115;-78
2022/04/03 01:45:00;;;;;;;4.20;1.92;;;10.30;97.50;;;;;;4714331;30;20057;-77
2022/04/03 01:47:27;;;;;;;2.72;1.38;;;10.20;97.50;;;;;;4726996;30;20057;-79
2022/04/03 01:49:55;;;;;;;4.78;2.53;;;10.20;97.70;;;;;;4714240;30;20056;-77
2022/04/03 01:52:23;;;;;;;2.55;1.05;;;10.20;97.70;;;;;;4711824;30;20135;-77
2022/04/03 01:54:50;;;;;;;5.85;2.08;;;10.30;97.70;;;;;;4712681;30;20685;-78
2022/04/03 01:57:18;;;;;;;4.97;1.52;;;10.40;97.60;;;;;;4712820;30;20544;-78
2022/04/03 01:59:48;;;;;;;2.80;1.63;;;10.50;97.60;;;;;;4713761;30;20069;-77
2022/04/03 02:02:15;;;;;;;5.60;2.45;;;10.50;97.50;;;;;;4714121;30;20496;-78
2022/04/03 02:04:44;;;;;;;3.35;1.30;;;10.60;97.40;;;;;;4713418;30;20096;-78
2022/04/03 02:07:12;;;;;;;5.07;1.65;;;10.50;97.20;;;;;;4714561;30;20080;-77
2022/04/03 02:09:40;;;;;;;4.00;1.95;;;10.50;97.30;;;;;;4701612;30;20513;-77
2022/04/03 02:12:08;;;;;;;3.08;1.70;;;10.50;97.40;;;;;;4715759;30;20049;-78
2022/04/03 02:14:36;;;;;;;4.03;1.35;;;10.60;97.30;;;;;;4715744;30;20163;-77
2022/04/03 02:17:03;;;;;;;6.30;2.40;;;10.60;97.30;;;;;;4715884;30;20507;-77
2022/04/03 02:19:31;;;;;;;5.55;2.00;;;10.60;97.20;;;;;;4715115;30;20492;-77
2022/04/03 02:21:58;;;;;;;3.05;1.67;;;10.40;97.30;;;;;;4715759;30;20065;-77
2022/04/03 02:24:29;;;;;;;4.60;2.50;;;10.20;97.60;;;;;;4716757;30;20076;-78
2022/04/03 02:26:56;;;;;;;4.05;1.50;;;10.30;97.80;;;;;;4716106;30;20060;-78
2022/04/03 02:29:24;;;;;;;5.60;1.52;;;10.20;97.60;;;;;;4700853;30;20064;-76
2022/04/03 02:31:52;;;;;;;5.13;1.48;;;10.20;97.80;;;;;;4716590;30;20061;-78
2022/04/03 02:34:19;;;;;;;4.80;2.00;;;10.20;98.00;;;;;;4716799;30;20064;-77
2022/04/03 02:36:47;;;;;;;7.63;2.15;;;10.10;97.90;;;;;;4700810;30;20061;-78
2022/04/03 02:39:14;;;;;;;4.15;2.28;;;10.00;97.90;;;;;;4700430;30;20061;-77
2022/04/03 02:41:42;;;;;;;3.97;1.63;;;9.80;98.30;;;;;;4700896;30;20063;-78
2022/04/03 02:44:10;;;;;;;5.07;1.70;;;9.70;98.40;;;;;;4700817;30;20061;-78
2022/04/03 02:46:38;;;;;;;3.35;1.25;;;9.50;98.80;;;;;;4715173;30;20077;-77
2022/04/03 02:49:08;;;;;;;7.53;1.45;;;9.30;99.00;;;;;;4700461;30;20092;-77
2022/04/03 02:51:36;;;;;;;4.75;2.55;;;9.30;99.60;;;;;;4700287;30;20063;-78
2022/04/03 02:54:04;;;;;;;6.10;1.80;;;9.40;99.50;;;;;;4714899;30;20053;-77
2022/04/03 02:56:32;;;;;;;5.00;1.45;;;9.40;99.40;;;;;;4700574;30;20850;-77
2022/04/03 02:59:02;;;;;;;4.80;1.83;;;9.50;99.40;;;;;;4729233;30;20140;-78
2022/04/03 03:01:29;;;;;;;3.80;1.98;;;9.50;99.20;;;;;;4733020;30;20045;-76
2022/04/03 03:03:57;;;;;;;4.85;1.73;;;9.60;99.20;;;;;;4715144;30;20061;-78
2022/04/03 03:06:24;;;;;;;4.88;1.30;;;9.70;98.80;;;;;;4714598;30;20154;-77
2022/04/03 03:08:52;;;;;;;2.85;1.25;;;9.60;98.70;;;;;;4700434;30;20064;-77
2022/04/03 03:11:20;;;;;;;2.60;1.75;;;9.60;98.80;;;;;;4729152;30;20113;-77
2022/04/03 03:13:47;;;;;;;8.35;1.80;;;9.60;98.90;;;;;;4728984;30;20048;-77
2022/04/03 03:16:14;;;;;;;2.80;1.10;;;9.60;98.80;;;;;;4728109;30;20151;-77
2022/04/03 03:18:42;;;;;;;4.03;2.20;;;9.60;98.80;;;;;;4713904;30;20061;-77
2022/04/03 03:21:12;;;;;;;4.78;1.52;;;9.50;98.90;;;;;;4714441;30;20065;-78
2022/04/03 03:23:40;;;;;;;6.60;1.67;;;9.60;99.00;;;;;;4715859;30;20053;-77
2022/04/03 03:26:08;;;;;;;6.35;2.38;;;9.60;99.00;;;;;;4714544;30;20060;-78
2022/04/03 03:28:36;;;;;;;3.30;1.50;;;9.60;98.90;;;;;;4714382;30;20068;-77
2022/04/03 03:31:05;;;;;;;3.40;1.50;;;9.60;99.10;;;;;;4714978;30;20061;-77
2022/04/03 03:33:34;;;;;;;9.05;2.15;;;9.60;99.20;;;;;;4700253;30;20088;-77
2022/04/03 03:36:01;;;;;;;5.93;1.73;;;9.60;99.20;;;;;;4714513;30;20520;-78
2022/04/03 03:38:29;;;;;;;5.30;1.40;;;9.60;99.20;;;;;;4713906;30;20059;-77
2022/04/03 03:40:57;;;;;;;6.00;2.10;;;9.50;99.20;;;;;;4699928;30;20059;-78
2022/04/03 03:43:25;;;;;;;3.45;1.30;;;9.60;99.40;;;;;;4728912;30;20067;-78
2022/04/03 03:45:52;;;;;;;6.90;2.20;;;9.60;99.40;;;;;;4699999;30;20075;-77
2022/04/03 03:48:20;;;;;;;2.95;1.58;;;9.60;99.30;;;;;;4700309;30;20477;-78
2022/04/03 03:50:48;;;;;;;5.25;1.80;;;9.50;99.40;;;;;;4714613;30;20060;-77
2022/04/03 03:53:16;;;;;;;3.03;1.40;;;9.60;99.40;;;;;;4713094;30;20049;-78
2022/04/03 03:55:43;;;;;;;3.63;1.50;;;9.50;99.50;;;;;;4715244;30;20076;-77
2022/04/03 03:58:11;;;;;;;4.32;2.33;;;9.60;99.50;;;;;;4699443;30;20053;-78
2022/04/03 04:00:38;;;;;;;7.82;2.17;;;9.60;99.40;;;;;;4700109;30;20398;-77
2022/04/03 04:03:06;;;;;;;11.15;2.03;;;9.50;99.30;;;;;;4714867;30;20071;-77
2022/04/03 04:05:33;;;;;;;6.38;2.45;;;9.50;99.30;;;;;;4713913;30;20057;-78
2022/04/03 04:08:01;;;;;;;3.60;1.30;;;9.50;99.30;;;;;;4714948;30;20489;-77
2022/04/03 04:10:28;;;;;;;4.30;1.50;;;9.40;99.60;;;;;;4699595;30;20140;-77
2022/04/03 04:12:56;;;;;;;3.00;1.55;;;9.40;99.70;;;;;;4714801;30;20061;-77
2022/04/03 04:15:25;;;;;;;4.28;1.67;;;9.40;99.80;;;;;;4699314;30;20057;-77
2022/04/03 04:17:57;;;;;;;3.70;1.65;;;9.50;99.80;;;;;;4699665;30;20441;-78
2022/04/03 04:20:24;;;;;;;5.05;2.60;;;9.50;99.80;;;;;;4699087;30;20159;-77
2022/04/03 04:22:52;;;;;;;5.75;1.98;;;9.50;99.80;;;;;;4699203;30;20395;-77
2022/04/03 04:25:20;;;;;;;5.15;1.90;;;9.60;99.70;;;;;;4714052;30;20049;-77
2022/04/03 04:27:48;;;;;;;6.95;2.08;;;9.80;99.70;;;;;;4699600;30;20053;-77
2022/04/03 04:30:15;;;;;;;4.30;2.58;;;9.80;99.50;;;;;;4722845;30;20060;-77
2022/04/03 04:32:45;;;;;;;6.47;2.25;;;9.90;99.30;;;;;;4698932;30;20509;-76
2022/04/03 04:35:13;;;;;;;8.10;2.00;;;10.00;99.20;;;;;;4714759;30;20049;-77
2022/04/03 04:37:42;;;;;;;7.80;2.42;;;10.00;99.10;;;;;;4729468;30;20434;-78
2022/04/03 04:40:11;;;;;;;4.85;2.42;;;10.00;98.70;;;;;;4731028;30;20197;-78
2022/04/03 04:42:39;;;;;;;5.57;2.28;;;10.00;98.60;;;;;;4696017;30;20076;-78
2022/04/03 04:45:07;;;;;;;4.93;2.03;;;10.10;98.50;;;;;;4727079;30;20048;-78
2022/04/03 04:47:35;;;;;;;5.90;1.77;;;10.20;98.40;;;;;;4739397;30;20137;-78
2022/04/03 04:50:11;;;;;;;10.35;1.70;;;10.40;98.40;;;;;;4729691;30;20110;-78
2022/04/03 04:52:40;;;;;;;5.28;2.78;;;10.50;98.20;;;;;;4745315;30;20068;-77
2022/04/03 04:55:08;;;;;;;7.13;1.33;;;10.60;98.00;;;;;;4730828;30;20049;-79
2022/04/03 04:57:37;;;;;;;9.50;2.83;;;10.70;97.90;;;;;;4716722;30;20057;-78
2022/04/03 05:00:10;;;;;;;6.22;2.22;;;10.70;97.80;;;;;;4730729;30;20094;-78
2022/04/03 05:02:37;;;;;;;4.15;2.45;;;10.80;97.90;;;;;;4745537;30;20098;-78
2022/04/03 05:05:06;;;;;;;5.15;2.55;;;11.00;97.90;;;;;;4715664;30;20138;-78
2022/04/03 05:07:34;;;;;;;4.68;2.35;;;11.20;97.60;;;;;;4730068;30;20053;-78
2022/04/03 05:10:04;;;;;;;2.50;1.50;;;11.30;97.50;;;;;;4731044;30;20060;-78
2022/04/03 05:12:35;;;;;;;5.07;1.75;;;11.30;97.50;;;;;;4731855;30;20071;-77
2022/04/03 05:15:03;;;;;;;3.13;1.83;;;11.40;97.60;;;;;;4730470;30;20064;-77
2022/04/03 05:17:31;;;;;;;4.40;1.45;;;11.60;97.30;;;;;;4744845;30;20485;-77
2022/04/03 05:19:59;;;;;;;6.50;1.95;;;11.70;97.00;;;;;;4729706;30;20492;-78
2022/04/03 05:22:26;;;;;;;7.65;2.92;;;11.90;96.90;;;;;;4715710;30;20053;-78
2022/04/03 05:24:54;;;;;;;3.15;2.28;;;12.00;96.90;;;;;;4730142;30;20049;-78
2022/04/03 05:27:22;;;;;;;3.75;2.17;;;12.20;96.80;;;;;;4730676;30;20045;-77
2022/04/03 05:29:50;;;;;;;6.40;1.67;;;12.30;96.40;;;;;;4715628;30;20048;-77
2022/04/03 05:32:29;;;;;;;5.07;2.13;;;12.50;96.20;;;;;;4715749;30;20416;-77
2022/04/03 05:34:57;;;;;;;8.32;2.47;;;12.60;95.90;;;;;;4730431;30;20475;-78
2022/04/03 05:37:26;;;;;;;6.57;2.28;;;12.80;95.70;;;;;;4731076;30;20527;-77
2022/04/03 05:39:54;;;;;;;5.55;2.35;;;13.00;95.60;;;;;;4715692;30;20048;-77
2022/04/03 05:42:22;;;;;;;7.13;2.60;;;13.10;95.30;;;;;;4732143;30;20053;-78
2022/04/03 05:44:49;;;;;;;3.97;2.22;;;13.20;95.00;;;;;;4718869;30;20067;-78
2022/04/03 05:47:17;;;;;;;8.77;2.17;;;13.30;94.80;;;;;;4735112;30;20060;-78
2022/04/03 05:49:45;;;;;;;3.67;1.58;;;13.40;94.90;;;;;;4733689;30;20156;-77
2022/04/03 05:52:16;;;;;;;5.30;1.92;;;13.50;94.70;;;;;;4704109;30;20056;-77
2022/04/03 05:54:43;;;;;;;7.00;1.85;;;13.60;94.30;;;;;;4704485;30;20057;-77
2022/04/03 05:57:11;;;;;;;7.88;2.22;;;13.50;94.30;;;;;;4718919;30;20070;-77
2022/04/03 05:59:38;;;;;;;4.18;1.90;;;13.60;94.60;;;;;;4718887;30;20143;-77
2022/04/03 06:02:11;;;;;;;4.72;2.08;;;13.60;94.90;;;;;;4733080;30;20053;-77
2022/04/03 06:04:38;;;;;;;7.72;1.67;;;13.80;94.50;;;;;;4704743;30;20068;-77
2022/04/03 06:07:07;;;;;;;3.85;2.05;;;13.90;94.30;;;;;;4731902;30;20048;-77
2022/04/03 06:09:36;;;;;;;6.05;2.42;;;14.00;94.30;;;;;;4719424;30;20060;-77
2022/04/03 06:12:03;;;;;;;5.25;2.35;;;14.00;94.10;;;;;;4734089;30;20095;-77
2022/04/03 06:14:31;;;;;;;6.50;2.13;;;13.90;94.50;;;;;;4732820;30;20144;-77
2022/04/03 06:16:59;;;;;;;4.63;1.70;;;14.00;94.50;;;;;;4733530;30;20149;-77
2022/04/03 06:19:26;;;;;;;5.10;2.42;;;14.10;94.30;;;;;;4704609;30;20061;-77
2022/04/03 06:21:54;;;;;;;4.80;2.05;;;14.30;93.80;;;;;;4733046;30;20065;-78
2022/04/03 06:24:21;;;;;;;4.93;1.77;;;14.50;93.40;;;;;;4732715;30;20519;-77
2022/04/03 06:26:49;;;;;;;3.42;1.90;;;14.70;93.40;;;;;;4718723;30;20064;-77
2022/04/03 06:29:16;;;;;;;4.22;1.70;;;14.80;93.20;;;;;;4718338;30;20056;-77
2022/04/03 06:31:44;;;;;;;4.85;1.75;;;14.90;93.00;;;;;;4733292;30;20080;-76
2022/04/03 06:34:11;;;;;;;7.57;1.42;;;14.90;92.40;;;;;;4732759;30;20136;-77
2022/04/03 06:36:39;;;;;;;4.45;1.88;;;15.10;92.20;;;;;;4703921;30;20069;-76
2022/04/03 06:39:06;;;;;;;2.78;1.30;;;15.30;92.30;;;;;;4733287;30;20775;-77
2022/04/03 06:41:34;;;;;;;7.88;3.40;;;15.30;92.10;;;;;;4718304;30;20712;-76
2022/04/03 06:44:02;;;;;;;7.28;1.70;;;15.10;91.80;;;;;;4718813;30;20068;-77
2022/04/03 06:46:30;;;;;;;11.65;2.38;;;14.80;91.50;;;;;;4732745;30;20049;-76
2022/04/03 06:48:58;;;;;;;4.72;2.20;;;14.80;91.70;;;;;;4732903;30;20096;-76
2022/04/03 06:51:26;;;;;;;4.97;2.20;;;14.90;91.60;;;;;;4733635;30;20056;-76
2022/04/03 06:53:54;;;;;;;3.78;2.00;;;14.90;91.90;;;;;;4717444;30;20063;-76
2022/04/03 06:56:21;;;;;;;4.47;1.95;;;15.00;91.90;;;;;;4718064;30;20566;-77
2022/04/03 06:58:49;;;;;;;4.18;2.47;;;15.00;91.90;;;;;;4732528;30;20412;-76
2022/04/03 07:01:17;;;;;;;6.43;2.30;;;14.90;91.40;;;;;;4732492;30;20060;-76
2022/04/03 07:03:46;;;;;;;8.32;2.53;;;15.30;91.70;;;;;;4730845;30;20067;-76
2022/04/03 07:06:14;;;;;;;4.68;2.13;;;15.30;91.30;;;;;;4717612;30;20421;-77
2022/04/03 07:08:43;;;;;;;8.85;3.55;;;15.20;91.50;;;;;;4717606;30;20068;-76
2022/04/03 07:11:11;;;;;;;7.13;2.95;;;15.10;91.90;;;;;;4732323;30;20393;-76
2022/04/03 07:13:39;;;;;;;6.28;3.15;;;15.00;92.00;;;;;;4703033;30;20052;-76
2022/04/03 07:16:06;;;;;;;7.00;2.92;;;15.00;92.30;;;;;;4732183;30;20063;-77
2022/04/03 07:18:37;;;;;;;7.70;2.97;;;14.90;92.20;;;;;;4732497;30;20766;-77
2022/04/03 07:21:05;;;;;;;3.45;1.95;;;14.70;91.70;;;;;;4718163;30;20084;-77
2022/04/03 07:23:35;;;;;;;8.48;2.88;;;14.60;91.40;;;;;;4718016;30;20052;-76
2022/04/03 07:26:05;;;;;;;4.97;2.55;;;14.50;91.60;;;;;;4717959;30;20049;-78
2022/04/03 07:28:33;;;;;;;3.67;2.35;;;14.50;91.50;;;;;;4718196;30;20461;-77
2022/04/03 07:31:02;;;;;;;5.68;2.38;;;14.30;91.50;;;;;;4732038;30;20213;-76
2022/04/03 07:33:30;;;;;;;6.55;2.25;;;14.40;91.40;;;;;;4702932;30;20053;-77
2022/04/03 07:35:57;;;;;;;4.97;1.95;;;14.60;91.10;;;;;;4717623;30;20049;-76
2022/04/03 07:38:26;;;;;;;3.38;2.35;;;15.10;90.80;;;;;;4731897;30;20099;-76
2022/04/03 07:40:54;;;;;;;4.05;1.65;;;15.40;90.50;;;;;;4717509;30;20128;-76
2022/04/03 07:43:23;;;;;;;5.80;1.90;;;15.30;90.40;;;;;;4732155;30;20432;-76
2022/04/03 07:45:51;;;;;;;4.97;2.35;;;15.00;90.60;;;;;;4732767;30;20528;-76
2022/04/03 07:48:21;;;;;;;5.85;2.30;;;15.00;90.90;;;;;;4731203;30;20505;-76
2022/04/03 07:50:51;;;;;;;5.05;2.00;;;15.30;91.20;;;;;;4732483;30;20068;-77
2022/04/03 07:53:19;;;;;;;6.25;3.80;;;15.60;91.50;;;;;;4731342;30;20571;-76
2022/04/03 07:55:47;;;;;;;5.68;2.17;;;15.90;90.80;;;;;;4733364;30;20057;-76
2022/04/03 07:58:15;;;;;;;4.55;1.98;;;15.80;90.70;;;;;;4729868;30;20107;-76
2022/04/03 08:00:43;;;;;;;3.53;2.05;;;15.80;90.80;;;;;;4731547;30;20052;-76
2022/04/03 08:03:11;;;;;;;8.35;2.38;;;15.80;91.00;;;;;;4732069;30;20056;-77
2022/04/03 08:05:39;;;;;;;5.82;2.20;;;15.90;90.70;;;;;;4730717;30;20090;-77
2022/04/03 08:08:06;;;;;;;5.07;2.90;;;15.60;90.60;;;;;;4731672;30;20519;-76
2022/04/03 08:10:34;;;;;;;6.25;1.75;;;15.10;91.30;;;;;;4731491;30;20461;-76
2022/04/03 08:13:02;;;;;;;6.10;2.25;;;14.80;91.70;;;;;;4731137;30;20069;-77
2022/04/03 08:15:30;;;;;;;3.45;1.52;;;14.70;92.50;;;;;;4732253;30;20068;-77
2022/04/03 08:17:57;;;;;;;5.40;1.83;;;14.60;92.30;;;;;;4716675;30;20497;-77
2022/04/03 08:20:25;;;;;;;3.17;1.30;;;14.60;92.20;;;;;;4732369;30;20502;-76
2022/04/03 08:22:53;;;;;;;6.13;2.42;;;14.40;91.80;;;;;;4732496;30;20052;-77
2022/04/03 08:25:20;;;;;;;9.30;2.78;;;14.40;92.40;;;;;;4732539;30;20064;-76
2022/04/03 08:27:54;;;;;;;4.88;2.05;;;14.40;92.80;;;;;;4716774;30;20069;-77
2022/04/03 08:30:24;;;;;;;4.93;2.10;;;14.60;92.60;;;;;;4715967;30;20064;-77
2022/04/03 08:32:53;;;;;;;8.25;2.83;;;15.00;91.80;;;;;;4731667;30;20056;-77
2022/04/03 08:35:22;;;;;;;6.18;1.88;;;14.80;91.30;;;;;;4731410;30;20053;-77
2022/04/03 08:37:50;;;;;;;6.10;2.22;;;14.80;91.90;;;;;;4731402;30;20133;-77
2022/04/03 08:40:21;;;;;;;7.95;2.72;;;14.80;92.20;;;;;;4716398;30;20512;-77
2022/04/03 08:42:50;;;;;;;9.55;2.50;;;14.90;92.30;;;;;;4702456;30;20059;-76
2022/04/03 08:45:19;;;;;;;2.80;1.58;;;15.00;92.00;;;;;;4716164;30;20057;-76
2022/04/03 08:47:54;;;;;;;3.70;1.40;;;15.30;91.60;;;;;;4702499;30;20155;-76
2022/04/03 08:50:29;;;;;;;4.05;1.50;;;15.40;90.60;;;;;;4730985;30;20060;-76
2022/04/03 08:53:02;;;;;;;4.82;1.40;;;15.60;90.80;;;;;;4702100;30;20146;-77
2022/04/03 08:55:31;;;;;;;3.22;1.67;;;15.50;91.20;;;;;;4702957;30;20114;-76
2022/04/03 08:58:02;;;;;;;3.97;1.42;;;15.60;91.00;;;;;;4698824;30;20056;-76
2022/04/03 09:00:32;;;;;;;3.65;1.85;;;15.30;90.60;;;;;;4714589;30;20060;-76
2022/04/03 09:03:00;;;;;;;9.70;2.63;;;15.20;91.10;;;;;;4714625;30;20107;-77
2022/04/03 09:05:38;;;;;;;3.80;1.60;;;15.30;91.10;;;;;;4715013;30;20079;-80
2022/04/03 09:08:08;;;;;;;4.40;1.73;;;15.60;91.80;;;;;;4719777;30;20614;-77
2022/04/03 09:10:36;;;;;;;6.15;1.75;;;15.80;90.80;;;;;;4702311;30;20424;-77
2022/04/03 09:13:04;;;;;;;3.65;1.50;;;15.80;90.50;;;;;;4732862;30;20056;-77
2022/04/03 09:15:32;;;;;;;3.33;1.30;;;15.70;91.10;;;;;;4727510;30;20590;-78
2022/04/03 09:18:02;;;;;;;8.55;2.25;;;15.90;91.00;;;;;;4706098;30;20155;-78
2022/04/03 09:20:36;;;;;;;3.90;1.50;;;16.00;91.40;;;;;;4737333;30;20052;-78
2022/04/03 09:23:08;;;;;;;4.70;2.15;;;16.40;90.80;;;;;;4720273;30;20041;-78
2022/04/03 09:25:41;;;;;;;4.95;1.77;;;16.30;89.40;;;;;;4718398;30;20063;-78
2022/04/03 09:28:14;;;;;;;5.07;1.70;;;16.30;90.20;;;;;;4724138;30;20049;-78
2022/04/03 09:30:46;;;;;;;4.55;2.00;;;16.60;89.50;;;;;;4725981;30;20152;-78
2022/04/03 09:33:19;;;;;;;4.65;1.60;;;16.80;88.50;;;;;;4718060;30;20072;-78
2022/04/03 09:35:57;;;;;;;4.32;2.70;;;16.80;87.10;;;;;;4729465;30;20057;-78
2022/04/03 09:38:27;;;;;;;2.60;1.23;;;16.70;88.20;;;;;;4718068;30;20064;-77
2022/04/03 09:40:58;;;;;;;2.35;1.20;;;16.90;88.60;;;;;;4727066;30;20402;-78
2022/04/03 09:43:35;;;;;;;5.78;1.92;;;16.80;88.30;;;;;;4733129;30;20108;-77
2022/04/03 09:46:05;;;;;;;4.70;2.00;;;16.40;89.60;;;;;;4718292;30;20063;-78
2022/04/03 09:48:43;;;;;;;8.30;2.20;;;16.30;90.20;;;;;;4728031;30;20060;-76
2022/04/03 09:51:13;;;;;;;6.18;2.08;;;16.10;90.40;;;;;;4733472;30;20085;-76
2022/04/03 09:53:45;;;;;;;3.78;2.20;;;16.30;90.10;;;;;;4724171;30;20061;-77
2022/04/03 09:56:26;;;;;;;7.00;2.60;;;16.50;90.10;;;;;;4733770;30;20056;-77
2022/04/03 09:58:54;;;;;;;5.40;2.38;;;16.70;89.10;;;;;;4719207;30;20053;-77
2022/04/03 10:01:30;;;;;;;5.30;1.92;;;16.70;90.40;;;;;;4719852;30;20053;-77
2022/04/03 10:04:02;;;;;;;5.20;2.38;;;16.30;88.80;;;;;;4734110;30;20064;-77
2022/04/03 10:06:31;;;;;;;4.70;2.25;;;16.00;90.40;;;;;;4733822;30;20132;-76
2022/04/03 10:08:59;;;;;;;4.82;2.42;;;16.20;88.40;;;;;;4704633;30;20118;-76
2022/04/03 10:11:29;;;;;;;3.85;1.92;;;16.20;87.30;;;;;;4734482;30;20049;-77
2022/04/03 10:13:58;;;;;;;3.97;1.83;;;16.40;88.30;;;;;;4733549;30;20791;-77
2022/04/03 10:16:26;;;;;;;3.10;1.92;;;16.70;88.40;;;;;;4733061;30;20076;-77
2022/04/03 10:18:54;;;;;;;2.67;1.40;;;16.70;87.30;;;;;;4733286;30;20143;-77
2022/04/03 10:21:43;;;;;;;2.55;1.45;;;16.60;88.80;;;;;;4733310;30;20171;-77
2022/04/03 10:24:23;;;;;;;3.00;2.00;;;16.40;86.80;;;;;;4732813;30;20048;-77
2022/04/03 10:27:12;;;;;;;3.28;1.80;;;16.30;88.20;;;;;;4703454;30;20068;-77
2022/04/03 10:29:41;;;;;;;7.45;3.03;;;16.40;87.20;;;;;;4718804;30;20386;-77
2022/04/03 10:32:20;;;;;;;4.13;2.53;;;16.40;87.80;;;;;;4733479;30;20053;-77
2022/04/03 10:34:55;;;;;;;3.63;1.80;;;16.50;83.80;;;;;;4732869;30;20057;-77
2022/04/03 10:37:26;;;;;;;6.75;1.70;;;16.30;83.40;;;;;;4734445;30;20049;-77
2022/04/03 10:40:15;;;;;;;4.18;1.67;;;16.20;82.60;;;;;;4718243;30;20067;-77
2022/04/03 10:42:50;;;;;;;2.30;1.35;;;15.90;83.60;;;;;;4718399;30;20121;-77
2022/04/03 10:45:29;;;;;;;3.58;1.52;;;15.60;84.50;;;;;;4718972;30;20091;-76
2022/04/03 10:48:23;;;;;;;3.10;1.80;;;15.50;86.80;;;;;;4732953;30;20048;-77
2022/04/03 10:51:11;;;;;;;4.60;1.80;;;16.00;87.30;;;;;;4712009;30;20084;-77
2022/04/03 10:53:47;;;;;;;5.60;2.72;;;16.10;88.60;;;;;;4733801;30;20056;-78
2022/04/03 10:56:24;;;;;;;5.20;3.08;;;16.40;90.10;;;;;;4732528;30;20460;-77
2022/04/03 10:58:57;;;;;;;4.07;2.15;;;16.30;88.20;;;;;;4733085;30;20064;-77
2022/04/03 11:01:33;;;;;;;6.22;1.80;;;16.30;88.90;;;;;;4703638;30;20056;-77
2022/04/03 11:04:11;;;;;;;5.45;2.30;;;16.40;89.30;;;;;;4731787;30;20144;-77
2022/04/03 11:06:40;;;;;;;5.65;3.15;;;16.50;87.80;;;;;;4732858;30;20061;-78
2022/04/03 11:09:11;;;;;;;6.43;2.15;;;16.50;89.80;;;;;;4732694;30;20056;-78
2022/04/03 11:11:50;;;;;;;7.10;2.85;;;16.40;90.00;;;;;;4732856;30;20045;-77
2022/04/03 11:14:56;;;;;;;9.43;3.95;;;16.30;89.50;;;;;;4703451;30;20057;-77
2022/04/03 11:17:42;;;;;;;3.35;2.03;;;16.30;89.60;;;;;;4717820;30;20049;-78
2022/04/03 11:20:10;;;;;;;3.85;1.52;;;16.20;90.40;;;;;;4718268;30;20065;-78
2022/04/03 11:22:38;;;;;;;3.65;2.13;;;16.20;90.30;;;;;;4732475;30;20463;-78
2022/04/03 11:25:06;;;;;;;7.18;3.08;;;16.30;90.80;;;;;;4703368;30;20079;-78
2022/04/03 11:27:34;;;;;;;5.65;2.65;;;16.20;89.80;;;;;;4717937;30;20131;-78
2022/04/03 11:30:01;;;;;;;3.85;2.10;;;16.00;89.30;;;;;;4717603;30;20056;-78
2022/04/03 11:32:31;;;;;;;7.05;1.88;;;16.20;88.10;;;;;;4717191;30;20842;-77
2022/04/03 11:34:58;;;;;;;8.95;2.95;;;16.20;87.60;;;;;;4717939;30;20049;-77
2022/04/03 11:37:28;;;;;;;3.17;1.83;;;16.20;87.70;;;;;;4703071;30;20127;-77
2022/04/03 11:39:57;;;;;;;8.98;4.13;;;15.90;88.10;;;;;;4702353;30;20063;-77
2022/04/03 11:42:25;;;;;;;4.72;1.92;;;16.00;89.40;;;;;;4717588;30;20053;-77
2022/04/03 11:44:53;;;;;;;6.90;4.25;;;15.90;89.90;;;;;;4703203;30;20832;-77
2022/04/03 11:47:25;;;;;;;4.10;2.08;;;16.10;89.90;;;;;;4731540;30;20086;-78
2022/04/03 11:50:12;;;;;;;5.93;2.38;;;16.00;89.40;;;;;;4729978;30;20055;-77
2022/04/03 11:52:41;;;;;;;6.22;1.55;;;16.10;87.00;;;;;;4717628;30;20060;-78
2022/04/03 11:55:11;;;;;;;4.28;1.20;;;16.00;87.70;;;;;;4717322;30;20156;-79
2022/04/03 11:57:39;;;;;;;6.50;1.67;;;16.10;87.20;;;;;;4717187;30;20096;-75
2022/04/03 12:00:15;;;;;;;6.27;1.83;;;16.00;88.00;;;;;;5067417;28;20402;-76
2022/04/03 12:02:43;;;;;;;4.20;1.55;;;15.90;89.10;;;;;;5066558;28;20434;-74
2022/04/03 12:05:10;;;;;;;5.78;1.60;;;15.90;88.70;;;;;;5067911;28;20076;-75
2022/04/03 12:07:38;;;;;;;3.33;1.30;;;16.10;88.00;;;;;;5066772;28;20491;-73
2022/04/03 12:10:06;;;;;;;8.05;2.08;;;16.10;88.20;;;;;;5066568;28;20072;-73
2022/04/03 12:12:37;;;;;;;5.13;1.73;;;15.70;87.00;;;;;;5049621;28;20053;-73
2022/04/03 12:15:12;;;;;;;2.85;1.20;;;15.60;87.80;;;;;;5066756;28;20578;-74
2022/04/03 12:17:41;;;;;;;5.57;2.15;;;15.70;85.70;;;;;;5049801;28;20123;-74
2022/04/03 12:20:12;;;;;;;6.22;2.75;;;15.90;86.40;;;;;;5066194;28;20127;-74
2022/04/03 12:22:43;;;;;;;3.92;1.30;;;16.00;86.70;;;;;;5049706;28;20056;-74
2022/04/03 12:25:12;;;;;;;4.25;1.88;;;15.90;86.40;;;;;;5066421;28;20483;-73
2022/04/03 12:27:40;;;;;;;4.95;1.70;;;16.00;87.10;;;;;;5046786;28;20061;-74
2022/04/03 12:30:09;;;;;;;4.70;1.33;;;16.30;87.00;;;;;;5057263;28;20060;-77
2022/04/03 12:32:42;;;;;;;2.55;1.10;;;16.50;83.80;;;;;;5055548;28;20131;-78
2022/04/03 12:35:11;;;;;;;4.78;1.27;;;16.50;83.50;;;;;;5063227;28;20502;-74
2022/04/03 12:37:41;;;;;;;2.10;1.05;;;16.40;81.60;;;;;;5072113;28;20505;-75
2022/04/03 12:40:11;;;;;;;2.88;1.20;;;16.30;81.10;;;;;;5070373;28;20062;-74
2022/04/03 12:42:41;;;;;;;4.75;1.27;;;16.10;81.60;;;;;;5066756;28;20048;-78
2022/04/03 12:45:18;;;;;;;3.72;1.70;;;16.10;80.80;;;;;;5079907;28;20068;-74
2022/04/03 12:47:50;;;;;;;5.25;1.88;;;15.90;83.20;;;;;;5060045;28;20048;-76
2022/04/03 12:50:25;;;;;;;1.90;1.20;;;16.00;85.20;;;;;;5042201;28;20123;-74
2022/04/03 12:52:56;;;;;;;3.38;1.60;;;16.10;86.40;;;;;;5071237;28;20053;-73
2022/04/03 12:55:24;;;;;;;2.88;1.27;;;16.30;86.50;;;;;;5058594;28;20420;-73
2022/04/03 13:01:00;;;;;;;3.15;1.63;;;16.30;84.70;;;;;;5047181;28;20403;-74
2022/04/03 13:03:38;;;;;;;4.95;1.50;;;16.20;86.00;;;;;;5070458;28;20048;-74